Time;durP1;ratioP1;P1;durP2;ratioP2;P2;SDS_P1;SDS_P2;PMS_P1;PMS_P2;Temp;Humidity;BMP_temperature;BMP_pressure;BME280_temperature;BME280_humidity;BME280_pressure;Samples;Min_cycle;Max_cycle;Signal;HPM_P1;HPM_P2
2023/07/09 00:01:16;;;;;;;3.60;2.60;;;25.70;98.90;;;;;;7387572;19;20552;-76
2023/07/09 00:03:43;;;;;;;5.30;2.70;;;25.70;99.10;;;;;;7384997;19;20158;-76
2023/07/09 00:06:09;;;;;;;3.25;2.53;;;25.70;99.20;;;;;;7383834;19;20139;-75
2023/07/09 00:08:38;;;;;;;4.75;2.80;;;25.70;99.30;;;;;;7384783;19;20455;-75
2023/07/09 00:11:03;;;;;;;4.32;2.75;;;25.70;99.50;;;;;;7384820;19;20229;-75
2023/07/09 00:13:29;;;;;;;4.85;2.72;;;25.60;99.70;;;;;;7385709;19;20139;-76
2023/07/09 00:15:59;;;;;;;5.43;2.95;;;25.70;99.90;;;;;;7383824;19;20134;-76
2023/07/09 00:18:25;;;;;;;7.03;3.05;;;25.70;99.80;;;;;;7384023;19;20486;-75
2023/07/09 00:20:51;;;;;;;4.53;2.75;;;25.70;99.90;;;;;;7387131;19;20619;-75
2023/07/09 00:23:20;;;;;;;3.58;2.53;;;25.60;99.90;;;;;;7383936;19;20181;-75
2023/07/09 00:25:47;;;;;;;3.55;2.45;;;25.60;99.90;;;;;;7383663;19;20139;-75
2023/07/09 00:28:14;;;;;;;5.38;2.90;;;25.70;99.90;;;;;;7384145;19;20135;-75
2023/07/09 00:30:40;;;;;;;5.20;3.00;;;25.50;99.90;;;;;;7386020;19;20130;-76
2023/07/09 00:33:18;;;;;;;5.50;3.00;;;25.40;99.90;;;;;;7383526;19;20135;-75
2023/07/09 00:35:46;;;;;;;3.45;2.70;;;25.40;99.90;;;;;;7381977;19;20467;-75
2023/07/09 00:38:21;;;;;;;4.53;3.00;;;25.40;99.90;;;;;;7385426;19;20603;-76
2023/07/09 00:40:59;;;;;;;5.90;2.75;;;25.50;99.90;;;;;;7382947;19;20156;-75
2023/07/09 00:43:29;;;;;;;4.78;2.90;;;25.30;99.90;;;;;;7383395;19;20144;-76
2023/07/09 00:46:19;;;;;;;3.95;2.50;;;25.30;99.90;;;;;;7379127;19;20178;-76
2023/07/09 00:49:05;;;;;;;3.05;2.60;;;25.40;99.90;;;;;;7386801;19;20135;-75
2023/07/09 00:51:35;;;;;;;4.18;2.40;;;25.00;99.90;;;;;;7384645;19;20134;-75
2023/07/09 00:54:30;;;;;;;3.63;2.33;;;25.10;99.90;;;;;;7384137;19;20163;-74
2023/07/09 00:57:00;;;;;;;4.32;2.40;;;25.10;99.90;;;;;;7380329;19;20142;-78
2023/07/09 00:59:29;;;;;;;4.53;3.00;;;25.20;99.90;;;;;;7386271;19;20179;-81
2023/07/09 01:01:56;;;;;;;5.47;2.53;;;25.20;99.90;;;;;;7389366;19;20151;-80
2023/07/09 01:04:23;;;;;;;5.75;2.70;;;25.20;99.90;;;;;;7390014;19;20122;-81
2023/07/09 01:06:54;;;;;;;3.50;2.67;;;25.20;99.90;;;;;;7388988;19;20163;-81
2023/07/09 01:09:25;;;;;;;4.05;2.60;;;25.10;99.90;;;;;;7389785;19;20233;-79
2023/07/09 01:11:52;;;;;;;5.10;2.30;;;25.10;99.90;;;;;;7389423;19;20154;-81
2023/07/09 01:14:21;;;;;;;5.53;2.65;;;25.10;99.90;;;;;;7391988;19;20127;-80
2023/07/09 01:16:57;;;;;;;5.13;2.75;;;25.10;99.90;;;;;;7387386;19;20412;-80
2023/07/09 01:19:28;;;;;;;3.22;2.38;;;25.00;99.90;;;;;;7389393;19;20130;-79
2023/07/09 01:22:01;;;;;;;4.18;3.03;;;24.90;99.90;;;;;;7388792;19;20143;-80
2023/07/09 01:25:01;;;;;;;4.30;2.50;;;25.00;99.90;;;;;;7388564;19;20146;-79
2023/07/09 01:27:48;;;;;;;3.17;2.67;;;25.00;99.90;;;;;;7389041;19;20147;-80
2023/07/09 01:30:31;;;;;;;3.42;2.33;;;24.80;99.90;;;;;;7391978;19;20730;-80
2023/07/09 01:33:00;;;;;;;3.75;2.55;;;24.50;99.90;;;;;;7387530;19;20606;-79
2023/07/09 01:35:31;;;;;;;4.32;2.80;;;24.50;99.90;;;;;;7387464;19;20222;-79
2023/07/09 01:37:57;;;;;;;4.63;2.95;;;24.60;99.90;;;;;;7384780;19;20169;-79
2023/07/09 01:40:25;;;;;;;4.15;2.60;;;24.70;99.90;;;;;;7389890;19;20143;-80
2023/07/09 01:42:51;;;;;;;5.07;2.65;;;24.80;99.90;;;;;;7389593;19;20138;-79
2023/07/09 01:45:17;;;;;;;6.05;2.50;;;24.80;99.90;;;;;;7391598;19;20135;-80
2023/07/09 01:47:44;;;;;;;4.63;2.50;;;24.80;99.90;;;;;;7385390;19;20165;-79
2023/07/09 01:50:10;;;;;;;3.30;2.33;;;24.80;99.90;;;;;;7389688;19;20135;-80
2023/07/09 01:52:41;;;;;;;4.40;2.95;;;24.80;99.90;;;;;;7388060;19;20161;-79
2023/07/09 01:55:08;;;;;;;4.25;2.50;;;24.70;99.90;;;;;;7387844;19;20142;-79
2023/07/09 01:57:34;;;;;;;4.75;2.83;;;24.70;99.90;;;;;;7388121;19;20146;-79
2023/07/09 02:00:04;;;;;;;5.90;3.00;;;24.60;99.90;;;;;;7389757;19;20150;-78
2023/07/09 02:02:32;;;;;;;3.30;2.58;;;24.50;99.90;;;;;;7386960;19;20139;-79
2023/07/09 02:04:59;;;;;;;3.80;2.28;;;24.50;99.90;;;;;;7389498;19;20157;-80
2023/07/09 02:07:25;;;;;;;3.53;2.50;;;24.60;99.90;;;;;;7387120;19;20155;-80
2023/07/09 02:09:51;;;;;;;3.03;2.72;;;24.60;99.90;;;;;;7390176;19;20218;-79
2023/07/09 02:12:18;;;;;;;5.55;2.63;;;24.60;99.90;;;;;;7389119;19;20139;-79
2023/07/09 02:14:45;;;;;;;4.78;2.72;;;24.50;99.90;;;;;;7386660;19;20506;-80
2023/07/09 02:17:12;;;;;;;5.80;2.55;;;24.50;99.90;;;;;;7388235;19;20142;-81
2023/07/09 02:19:38;;;;;;;3.30;2.33;;;24.50;99.90;;;;;;7388751;19;20139;-79
2023/07/09 02:22:05;;;;;;;3.58;3.15;;;24.60;99.90;;;;;;7389707;19;20126;-79
2023/07/09 02:24:31;;;;;;;4.10;2.80;;;24.50;99.90;;;;;;7386772;19;20138;-80
2023/07/09 02:26:59;;;;;;;3.70;2.65;;;24.40;99.90;;;;;;7390241;19;20146;-79
2023/07/09 02:29:26;;;;;;;3.63;2.45;;;24.30;99.90;;;;;;7386846;19;20295;-79
2023/07/09 02:31:54;;;;;;;4.70;2.50;;;24.30;99.90;;;;;;7390269;19;20146;-79
2023/07/09 02:34:25;;;;;;;3.92;2.65;;;24.30;99.90;;;;;;7386353;19;20468;-79
2023/07/09 02:36:55;;;;;;;5.65;2.65;;;24.20;99.90;;;;;;7386935;19;20151;-81
2023/07/09 02:39:23;;;;;;;5.43;2.58;;;24.20;99.90;;;;;;7386179;19;21815;-81
2023/07/09 02:41:49;;;;;;;3.63;2.58;;;24.20;99.90;;;;;;7378517;19;20168;-80
2023/07/09 02:44:15;;;;;;;3.40;2.70;;;24.00;99.90;;;;;;7388287;19;20139;-79
2023/07/09 02:46:41;;;;;;;5.28;2.60;;;24.00;99.90;;;;;;7384593;19;20154;-78
2023/07/09 02:49:10;;;;;;;3.40;2.50;;;24.10;99.90;;;;;;7387376;19;20218;-79
2023/07/09 02:51:36;;;;;;;3.97;3.05;;;24.20;99.90;;;;;;7387275;19;20151;-79
2023/07/09 02:54:02;;;;;;;4.25;2.90;;;24.30;99.90;;;;;;7387647;19;20152;-79
2023/07/09 02:56:29;;;;;;;2.80;2.38;;;24.20;99.90;;;;;;7384013;19;20460;-79
2023/07/09 02:58:55;;;;;;;3.25;2.35;;;24.10;99.90;;;;;;7387609;19;20130;-79
2023/07/09 03:01:26;;;;;;;5.00;2.45;;;24.10;99.90;;;;;;7388232;19;20122;-79
2023/07/09 03:03:57;;;;;;;3.95;2.47;;;24.20;99.90;;;;;;7388746;19;20139;-79
2023/07/09 03:06:24;;;;;;;4.60;2.45;;;24.10;99.90;;;;;;7387878;19;20505;-79
2023/07/09 03:08:51;;;;;;;3.10;2.53;;;24.10;99.90;;;;;;7386669;19;20619;-79
2023/07/09 03:11:18;;;;;;;3.20;2.60;;;23.60;99.90;;;;;;7382359;19;20381;-79
2023/07/09 03:13:44;;;;;;;3.70;2.75;;;23.60;99.90;;;;;;7387061;19;20172;-79
2023/07/09 03:16:10;;;;;;;4.55;2.88;;;23.50;99.90;;;;;;7383272;19;20145;-79
2023/07/09 03:18:36;;;;;;;3.97;2.67;;;23.60;99.90;;;;;;7383757;19;20228;-78
2023/07/09 03:21:01;;;;;;;6.63;2.65;;;23.70;99.90;;;;;;7385176;19;20160;-79
2023/07/09 03:23:27;;;;;;;4.25;3.05;;;23.80;99.90;;;;;;7383868;19;20507;-80
2023/07/09 03:25:54;;;;;;;4.47;2.40;;;23.70;99.90;;;;;;7386666;19;20151;-79
2023/07/09 03:28:20;;;;;;;3.75;2.45;;;23.90;99.90;;;;;;7388367;19;20141;-80
2023/07/09 03:30:48;;;;;;;5.18;3.15;;;24.00;99.90;;;;;;7387150;19;20483;-79
2023/07/09 03:33:16;;;;;;;4.38;2.58;;;23.90;99.90;;;;;;7384927;19;20686;-79
2023/07/09 03:35:42;;;;;;;5.45;2.83;;;23.90;99.90;;;;;;7385642;19;20157;-81
2023/07/09 03:38:09;;;;;;;6.07;2.63;;;24.00;99.90;;;;;;7385280;19;20142;-79
2023/07/09 03:40:37;;;;;;;4.95;2.75;;;24.00;99.90;;;;;;7386368;19;20142;-79
2023/07/09 03:43:03;;;;;;;6.22;3.00;;;23.90;99.90;;;;;;7386019;19;20521;-79
2023/07/09 03:45:30;;;;;;;6.22;3.08;;;23.80;99.90;;;;;;7385401;19;20169;-78
2023/07/09 03:47:56;;;;;;;6.03;3.10;;;23.80;99.90;;;;;;7383059;19;20154;-79
2023/07/09 03:50:22;;;;;;;4.95;2.90;;;23.80;99.90;;;;;;7385163;19;20489;-79
2023/07/09 03:52:48;;;;;;;4.32;2.80;;;23.70;99.90;;;;;;7384990;19;20785;-80
2023/07/09 03:55:14;;;;;;;5.88;3.47;;;23.70;99.90;;;;;;7385516;19;20130;-79
2023/07/09 03:57:40;;;;;;;3.38;2.67;;;23.70;99.90;;;;;;7384439;19;20160;-80
2023/07/09 04:00:10;;;;;;;4.15;2.78;;;23.70;99.90;;;;;;7385634;19;20442;-79
2023/07/09 04:02:39;;;;;;;4.22;3.00;;;23.50;99.90;;;;;;7384767;19;20496;-79
2023/07/09 04:05:08;;;;;;;4.55;3.10;;;23.50;99.90;;;;;;7385234;19;20230;-79
2023/07/09 04:07:34;;;;;;;6.85;3.25;;;23.50;99.90;;;;;;7385400;19;20135;-78
2023/07/09 04:10:00;;;;;;;5.93;3.00;;;23.60;99.90;;;;;;7384911;19;20145;-78
2023/07/09 04:12:26;;;;;;;4.40;2.83;;;23.70;99.90;;;;;;7384990;19;20154;-78
2023/07/09 04:14:51;;;;;;;4.40;3.00;;;23.80;99.90;;;;;;7384828;19;20481;-78
2023/07/09 04:17:17;;;;;;;4.20;2.92;;;23.70;99.90;;;;;;7384031;19;20159;-79
2023/07/09 04:19:43;;;;;;;5.35;2.60;;;23.50;99.90;;;;;;7383896;19;20157;-79
2023/07/09 04:22:10;;;;;;;4.38;2.80;;;23.50;99.90;;;;;;7386059;19;20140;-79
2023/07/09 04:24:36;;;;;;;3.70;2.78;;;23.70;99.90;;;;;;7383946;19;20146;-79
2023/07/09 04:27:02;;;;;;;3.83;2.85;;;23.70;99.90;;;;;;7384203;19;20640;-80
2023/07/09 04:29:35;;;;;;;2.97;2.58;;;23.80;99.90;;;;;;7383294;19;20167;-80
2023/07/09 04:32:02;;;;;;;3.38;2.53;;;23.80;99.90;;;;;;7387247;19;20143;-79
2023/07/09 04:34:28;;;;;;;3.63;2.67;;;23.90;99.90;;;;;;7385726;19;20143;-78
2023/07/09 04:36:54;;;;;;;7.72;3.10;;;23.90;99.90;;;;;;7388697;19;20163;-78
2023/07/09 04:39:20;;;;;;;4.50;2.20;;;23.80;99.90;;;;;;7391454;19;20134;-78
2023/07/09 04:41:46;;;;;;;3.78;2.53;;;23.80;99.90;;;;;;7390907;19;20134;-79
2023/07/09 04:44:12;;;;;;;3.45;2.63;;;23.90;99.90;;;;;;7390221;19;20149;-78
2023/07/09 04:46:38;;;;;;;5.35;2.72;;;23.70;99.90;;;;;;7389201;19;20182;-79
2023/07/09 04:49:04;;;;;;;7.53;2.55;;;23.70;99.90;;;;;;7390804;19;20139;-79
2023/07/09 04:51:29;;;;;;;4.15;2.80;;;23.60;99.90;;;;;;7391476;19;20145;-79
2023/07/09 04:53:55;;;;;;;3.42;2.40;;;23.80;99.90;;;;;;7389066;19;20158;-79
2023/07/09 04:56:21;;;;;;;6.28;3.13;;;23.80;99.90;;;;;;7388335;19;20134;-80
2023/07/09 04:58:47;;;;;;;3.20;2.75;;;23.90;99.90;;;;;;7388933;19;20234;-79
2023/07/09 05:01:12;;;;;;;4.20;2.58;;;24.00;99.90;;;;;;7390857;19;20447;-79
2023/07/09 05:03:38;;;;;;;5.43;2.70;;;24.00;99.90;;;;;;7388577;19;20161;-78
2023/07/09 05:06:04;;;;;;;3.08;2.30;;;24.10;99.90;;;;;;7390599;19;20147;-78
2023/07/09 05:08:30;;;;;;;4.70;2.90;;;24.00;99.90;;;;;;7389032;19;20173;-78
2023/07/09 05:10:57;;;;;;;3.35;2.58;;;24.10;99.90;;;;;;7390715;19;20150;-78
2023/07/09 05:13:24;;;;;;;3.95;2.80;;;24.10;99.90;;;;;;7388878;19;20506;-79
2023/07/09 05:15:51;;;;;;;3.03;2.63;;;24.20;99.90;;;;;;7387863;19;20158;-78
2023/07/09 05:18:18;;;;;;;4.20;2.55;;;24.20;99.90;;;;;;7388663;19;20198;-79
2023/07/09 05:20:47;;;;;;;3.75;2.97;;;24.20;99.90;;;;;;7390030;19;20198;-79
2023/07/09 05:23:12;;;;;;;3.60;2.78;;;24.20;99.90;;;;;;7389306;19;20157;-79
2023/07/09 05:25:38;;;;;;;4.05;2.83;;;24.20;99.90;;;;;;7390531;19;20142;-79
2023/07/09 05:28:05;;;;;;;5.60;3.17;;;24.30;99.90;;;;;;7388101;19;20633;-79
2023/07/09 05:30:31;;;;;;;4.93;2.67;;;24.30;99.90;;;;;;7391306;19;20138;-80
2023/07/09 05:33:00;;;;;;;4.85;3.10;;;24.30;99.90;;;;;;7388103;19;20169;-79
2023/07/09 05:35:26;;;;;;;4.97;2.67;;;24.40;99.90;;;;;;7389515;19;20139;-79
2023/07/09 05:37:54;;;;;;;4.40;2.83;;;24.50;99.90;;;;;;7388443;19;20654;-79
2023/07/09 05:40:21;;;;;;;4.25;2.80;;;24.40;99.90;;;;;;7390636;19;20150;-80
2023/07/09 05:42:47;;;;;;;4.07;2.80;;;24.50;99.90;;;;;;7386493;19;20134;-79
2023/07/09 05:45:13;;;;;;;6.00;2.60;;;24.50;99.90;;;;;;7390073;19;20887;-79
2023/07/09 05:47:39;;;;;;;3.30;2.40;;;24.40;99.90;;;;;;7385417;19;20151;-79
2023/07/09 05:50:05;;;;;;;3.03;2.60;;;24.30;99.90;;;;;;7388929;19;20135;-79
2023/07/09 05:52:31;;;;;;;5.63;2.53;;;24.20;99.90;;;;;;7387536;19;20147;-80
2023/07/09 05:54:59;;;;;;;6.20;3.00;;;24.20;99.90;;;;;;7388214;19;20194;-79
2023/07/09 05:57:24;;;;;;;3.92;2.67;;;24.40;99.90;;;;;;7386826;19;20404;-79
2023/07/09 05:59:50;;;;;;;4.57;2.70;;;24.50;99.90;;;;;;7387913;19;20702;-79
2023/07/09 06:02:19;;;;;;;5.20;3.03;;;24.60;99.90;;;;;;7387713;19;20962;-79
2023/07/09 06:04:46;;;;;;;3.55;2.47;;;24.70;99.90;;;;;;7388391;19;20165;-80
2023/07/09 06:07:15;;;;;;;3.65;2.90;;;24.80;99.90;;;;;;7388188;19;20611;-79
2023/07/09 06:09:41;;;;;;;3.00;2.63;;;24.70;99.90;;;;;;7389885;19;20138;-78
2023/07/09 06:12:07;;;;;;;3.83;2.75;;;24.70;99.90;;;;;;7389018;19;20590;-80
2023/07/09 06:14:33;;;;;;;3.42;2.70;;;24.70;99.90;;;;;;7388615;19;20149;-80
2023/07/09 06:17:00;;;;;;;5.85;3.40;;;24.80;99.90;;;;;;7384483;19;20146;-79
2023/07/09 06:19:26;;;;;;;4.68;2.97;;;25.20;99.90;;;;;;7387808;19;20146;-79
2023/07/09 06:21:51;;;;;;;5.05;2.78;;;26.10;99.90;;;;;;7388359;19;20206;-77
2023/07/09 06:24:17;;;;;;;5.00;3.15;;;26.50;99.90;;;;;;7389619;19;20545;-77
2023/07/09 06:26:43;;;;;;;5.28;2.83;;;28.40;99.90;;;;;;7387754;19;20259;-78
2023/07/09 06:29:09;;;;;;;4.90;2.70;;;30.90;99.90;;;;;;7388684;19;20512;-78
2023/07/09 06:31:37;;;;;;;4.15;2.90;;;32.80;96.70;;;;;;7387682;19;20625;-77
2023/07/09 06:34:03;;;;;;;3.67;2.58;;;33.90;94.00;;;;;;7386853;19;20135;-77
2023/07/09 06:36:29;;;;;;;4.47;3.20;;;34.20;92.60;;;;;;7385525;19;20173;-77
2023/07/09 06:38:55;;;;;;;5.60;3.40;;;34.60;91.50;;;;;;7387176;19;20154;-78
2023/07/09 06:41:21;;;;;;;4.13;2.80;;;35.60;89.90;;;;;;7389199;19;20142;-78
2023/07/09 06:43:47;;;;;;;6.30;3.60;;;36.10;86.70;;;;;;7387552;19;20154;-79
2023/07/09 06:46:14;;;;;;;5.07;3.05;;;36.30;84.90;;;;;;7383252;19;20230;-78
2023/07/09 06:48:40;;;;;;;6.68;3.72;;;37.10;82.10;;;;;;7380492;19;20137;-78
2023/07/09 06:51:06;;;;;;;4.15;3.17;;;37.00;80.50;;;;;;7386728;19;20202;-78
2023/07/09 06:53:32;;;;;;;3.83;2.95;;;37.30;79.40;;;;;;7387977;19;20599;-78
2023/07/09 06:56:00;;;;;;;4.75;3.05;;;37.30;78.40;;;;;;7383103;19;20146;-79
2023/07/09 06:58:28;;;;;;;5.57;3.17;;;37.30;78.20;;;;;;7387380;19;20159;-78
2023/07/09 07:00:55;;;;;;;4.57;2.90;;;37.20;77.60;;;;;;7385923;19;20131;-79
2023/07/09 07:03:23;;;;;;;4.15;3.30;;;36.70;78.10;;;;;;7387518;19;20142;-79
2023/07/09 07:05:50;;;;;;;6.57;2.95;;;36.70;78.10;;;;;;7386752;19;20163;-79
2023/07/09 07:08:18;;;;;;;5.30;3.47;;;35.90;79.30;;;;;;7387394;19;20133;-79
2023/07/09 07:10:46;;;;;;;4.63;3.50;;;35.60;79.60;;;;;;7387712;19;20158;-78
2023/07/09 07:13:12;;;;;;;5.82;3.13;;;35.50;80.00;;;;;;7387835;19;20150;-79
2023/07/09 07:15:39;;;;;;;4.63;4.03;;;34.80;81.10;;;;;;7385981;19;20147;-79
2023/07/09 07:18:06;;;;;;;5.07;3.58;;;34.50;82.00;;;;;;7385732;19;20154;-78
2023/07/09 07:20:32;;;;;;;5.10;3.38;;;34.60;81.80;;;;;;7387274;19;20195;-79
2023/07/09 07:22:58;;;;;;;5.72;3.30;;;34.60;81.80;;;;;;7387576;19;20138;-79
2023/07/09 07:25:30;;;;;;;3.65;2.88;;;34.40;82.20;;;;;;7387955;19;20138;-80
2023/07/09 07:27:56;;;;;;;4.25;3.13;;;34.10;83.10;;;;;;7386573;19;20241;-79
2023/07/09 07:30:21;;;;;;;4.75;3.08;;;34.30;83.20;;;;;;7386587;19;20591;-82
2023/07/09 07:32:48;;;;;;;5.93;2.80;;;34.10;84.00;;;;;;7385899;19;20145;-78
2023/07/09 07:35:15;;;;;;;4.03;2.90;;;33.80;83.80;;;;;;7383867;19;20153;-80
2023/07/09 07:37:41;;;;;;;5.80;3.22;;;33.90;83.70;;;;;;7385584;19;20143;-78
2023/07/09 07:40:08;;;;;;;4.82;3.35;;;33.80;83.80;;;;;;7385686;19;20142;-78
2023/07/09 07:42:34;;;;;;;3.40;2.85;;;33.50;84.30;;;;;;7382916;19;20234;-81
2023/07/09 07:45:00;;;;;;;5.80;3.10;;;33.50;84.60;;;;;;7384328;19;20164;-81
2023/07/09 07:47:29;;;;;;;5.65;3.33;;;33.50;84.60;;;;;;7381874;19;20151;-78
2023/07/09 07:49:56;;;;;;;5.07;3.20;;;33.50;84.60;;;;;;7384656;19;20545;-78
2023/07/09 07:52:22;;;;;;;4.80;3.45;;;33.20;85.70;;;;;;7386280;19;20134;-79
2023/07/09 07:54:49;;;;;;;4.63;3.00;;;33.00;85.60;;;;;;7385074;19;20569;-79
2023/07/09 07:57:14;;;;;;;6.72;2.75;;;32.80;85.80;;;;;;7387049;19;20138;-79
2023/07/09 07:59:40;;;;;;;6.32;3.72;;;33.00;85.90;;;;;;7385051;19;20181;-80
2023/07/09 08:02:10;;;;;;;3.55;2.95;;;33.40;85.10;;;;;;7393522;19;20141;-79
2023/07/09 08:04:36;;;;;;;5.18;3.17;;;33.30;84.80;;;;;;7390667;19;20141;-80
2023/07/09 08:07:02;;;;;;;4.10;2.80;;;32.90;85.10;;;;;;7390617;19;20130;-79
2023/07/09 08:09:29;;;;;;;3.70;3.15;;;33.00;85.60;;;;;;7395325;19;20131;-78
2023/07/09 08:11:54;;;;;;;4.78;3.45;;;33.10;85.40;;;;;;7390193;19;20150;-81
2023/07/09 08:14:20;;;;;;;4.38;3.25;;;33.40;84.80;;;;;;7392186;19;20165;-79
2023/07/09 08:16:47;;;;;;;3.97;3.10;;;33.60;84.20;;;;;;7388982;19;20583;-81
2023/07/09 08:19:13;;;;;;;4.47;3.03;;;33.30;83.90;;;;;;7393903;19;20142;-80
2023/07/09 08:21:39;;;;;;;4.15;3.00;;;33.20;84.20;;;;;;7393360;19;20468;-81
2023/07/09 08:24:06;;;;;;;4.43;3.03;;;33.20;84.30;;;;;;7391586;19;20151;-83
2023/07/09 08:26:32;;;;;;;5.85;3.20;;;33.20;84.10;;;;;;7391120;19;20157;-81
2023/07/09 08:28:58;;;;;;;4.00;3.20;;;33.30;83.60;;;;;;7391459;19;20134;-81
2023/07/09 08:31:24;;;;;;;4.82;3.13;;;33.20;83.50;;;;;;7391635;19;20150;-82
2023/07/09 08:33:50;;;;;;;4.47;3.05;;;33.20;82.50;;;;;;7390899;19;20142;-82
2023/07/09 08:36:15;;;;;;;4.95;3.15;;;33.30;81.90;;;;;;7390472;19;20146;-81
2023/07/09 08:38:41;;;;;;;3.78;2.85;;;33.30;81.80;;;;;;7388432;19;20142;-79
2023/07/09 08:41:35;;;;;;;4.50;3.13;;;33.00;81.70;;;;;;7390187;19;20150;-82
2023/07/09 08:45:00;;;;;;;4.38;3.28;;;33.00;82.20;;;;;;7390235;19;20154;-82
2023/07/09 08:47:48;;;;;;;4.15;2.55;;;32.80;82.80;;;;;;7388771;19;20170;-81
2023/07/09 08:50:24;;;;;;;3.70;3.30;;;33.10;82.40;;;;;;7390539;19;20625;-82
2023/07/09 08:52:52;;;;;;;7.28;3.28;;;33.20;82.20;;;;;;7389694;19;20150;-83
2023/07/09 08:55:21;;;;;;;4.07;3.00;;;33.10;83.20;;;;;;7389237;19;20217;-82
2023/07/09 08:57:54;;;;;;;6.43;3.17;;;33.00;83.70;;;;;;7389010;19;20169;-80
2023/07/09 09:00:31;;;;;;;4.43;2.90;;;33.10;84.00;;;;;;7389686;19;20139;-80
2023/07/09 09:03:10;;;;;;;5.00;3.40;;;33.30;83.40;;;;;;7389559;19;20146;-83
2023/07/09 09:05:42;;;;;;;4.20;3.45;;;33.20;83.30;;;;;;7390240;19;20587;-82
2023/07/09 09:08:37;;;;;;;5.80;3.80;;;33.00;83.80;;;;;;7388356;19;20491;-79
2023/07/09 09:11:11;;;;;;;4.75;3.60;;;32.80;84.20;;;;;;7386863;19;20506;-81
2023/07/09 09:13:39;;;;;;;5.95;3.60;;;32.50;84.60;;;;;;7390448;19;20213;-82
2023/07/09 09:16:26;;;;;;;7.15;4.15;;;32.50;84.30;;;;;;7387483;19;20134;-82
2023/07/09 09:18:57;;;;;;;4.15;3.10;;;32.20;84.80;;;;;;7389836;19;20622;-80
2023/07/09 09:21:36;;;;;;;4.57;4.00;;;32.60;85.00;;;;;;7388016;19;20469;-82
2023/07/09 09:24:26;;;;;;;8.52;4.00;;;32.50;84.10;;;;;;7388464;19;20134;-79
2023/07/09 09:26:56;;;;;;;4.55;3.00;;;32.00;84.70;;;;;;7387445;19;20266;-75
2023/07/09 09:29:24;;;;;;;3.50;3.00;;;32.00;85.80;;;;;;7388968;19;20134;-78
2023/07/09 09:31:55;;;;;;;4.50;3.05;;;32.00;84.80;;;;;;7390997;19;20151;-82
2023/07/09 09:34:30;;;;;;;5.47;2.95;;;32.10;84.50;;;;;;7387355;19;20143;-77
2023/07/09 09:36:58;;;;;;;5.65;3.10;;;32.00;84.80;;;;;;7385815;19;20229;-79
2023/07/09 09:39:25;;;;;;;4.13;2.58;;;32.00;84.70;;;;;;7387882;19;20154;-77
2023/07/09 09:41:57;;;;;;;3.22;2.63;;;32.10;84.30;;;;;;7386425;19;20597;-78
2023/07/09 09:44:27;;;;;;;4.95;3.28;;;32.20;84.00;;;;;;7386751;19;20159;-77
2023/07/09 09:46:56;;;;;;;4.68;2.75;;;32.10;83.70;;;;;;7388048;19;20154;-76
2023/07/09 09:49:22;;;;;;;5.53;2.58;;;32.00;84.00;;;;;;7387408;19;20144;-75
2023/07/09 09:51:51;;;;;;;4.57;2.92;;;31.90;84.00;;;;;;7388328;19;20206;-77
2023/07/09 09:54:27;;;;;;;4.30;2.80;;;31.90;84.40;;;;;;7379331;19;20141;-75
2023/07/09 09:56:54;;;;;;;3.65;3.10;;;32.00;83.80;;;;;;7386158;19;20134;-76
2023/07/09 09:59:24;;;;;;;4.40;2.65;;;32.10;83.30;;;;;;7384530;19;20167;-75
2023/07/09 10:02:02;;;;;;;3.85;2.80;;;32.20;83.40;;;;;;7388002;19;20142;-76
2023/07/09 10:04:28;;;;;;;5.25;3.05;;;32.50;82.70;;;;;;7388614;19;20154;-76
2023/07/09 10:07:05;;;;;;;4.22;3.10;;;32.30;81.50;;;;;;7386675;19;20150;-75
2023/07/09 10:09:51;;;;;;;4.05;2.30;;;32.20;81.10;;;;;;7388428;19;20630;-75
2023/07/09 10:12:35;;;;;;;3.35;2.47;;;32.20;80.50;;;;;;7386570;19;20150;-74
2023/07/09 10:15:33;;;;;;;3.33;2.20;;;32.70;79.60;;;;;;7388374;19;20142;-75
2023/07/09 10:18:14;;;;;;;3.00;2.10;;;33.30;72.70;;;;;;7387672;19;20467;-74
2023/07/09 10:20:51;;;;;;;5.00;2.40;;;33.50;69.60;;;;;;7385649;19;20134;-77
2023/07/09 10:23:27;;;;;;;3.00;2.15;;;33.30;69.20;;;;;;7386410;19;20137;-75
2023/07/09 10:25:57;;;;;;;3.45;2.00;;;33.30;69.80;;;;;;7381953;19;20142;-74
2023/07/09 10:28:39;;;;;;;2.88;2.17;;;33.50;67.50;;;;;;7385104;19;20155;-78
2023/07/09 10:31:19;;;;;;;3.15;2.38;;;33.50;68.20;;;;;;7387309;19;20494;-78
2023/07/09 10:34:04;;;;;;;3.33;2.08;;;33.60;67.90;;;;;;7386828;19;20130;-77
2023/07/09 10:37:06;;;;;;;4.80;2.10;;;33.80;67.30;;;;;;7386522;19;20138;-78
2023/07/09 10:39:41;;;;;;;4.80;2.72;;;33.80;65.30;;;;;;7386434;19;20908;-78
2023/07/09 10:42:21;;;;;;;3.55;2.38;;;33.80;66.00;;;;;;7387972;19;20160;-79
2023/07/09 10:45:01;;;;;;;4.60;2.58;;;33.90;66.00;;;;;;7389884;19;20194;-79
2023/07/09 10:47:50;;;;;;;4.00;2.20;;;33.90;63.10;;;;;;7383582;19;20207;-79
2023/07/09 10:50:26;;;;;;;4.82;2.33;;;33.80;63.70;;;;;;7387129;19;20146;-78
2023/07/09 10:52:57;;;;;;;4.50;2.22;;;33.80;65.40;;;;;;7384550;19;20154;-82
2023/07/09 10:55:39;;;;;;;3.08;2.35;;;33.90;64.90;;;;;;7387832;19;20145;-81
2023/07/09 10:58:34;;;;;;;3.88;2.83;;;33.80;65.40;;;;;;7388210;19;20153;-80
2023/07/09 11:01:00;;;;;;;5.30;2.35;;;33.50;66.00;;;;;;7387985;19;20135;-82
2023/07/09 11:03:53;;;;;;;3.15;2.13;;;33.60;63.80;;;;;;7385586;19;20151;-79
2023/07/09 11:06:33;;;;;;;2.72;2.25;;;33.80;61.80;;;;;;7385817;19;20151;-81
2023/07/09 11:09:01;;;;;;;5.13;2.47;;;33.90;60.50;;;;;;7387161;19;20157;-77
2023/07/09 11:11:38;;;;;;;4.05;2.60;;;34.00;59.90;;;;;;7384618;19;20141;-79
2023/07/09 11:14:11;;;;;;;5.43;2.72;;;34.00;59.60;;;;;;7385984;19;20138;-81
2023/07/09 11:16:40;;;;;;;4.50;2.90;;;33.90;59.80;;;;;;7381330;19;20634;-79
2023/07/09 11:19:13;;;;;;;4.30;2.10;;;33.70;59.40;;;;;;7386340;19;20142;-79
2023/07/09 11:22:13;;;;;;;5.13;2.47;;;33.60;60.00;;;;;;7384952;19;20143;-80
2023/07/09 11:24:50;;;;;;;2.90;2.45;;;33.80;60.30;;;;;;7385312;19;20605;-79
2023/07/09 11:27:27;;;;;;;6.40;2.97;;;33.90;60.40;;;;;;7386194;19;20178;-77
2023/07/09 11:30:01;;;;;;;2.60;2.08;;;33.80;60.10;;;;;;7384950;19;20234;-77
2023/07/09 11:32:28;;;;;;;4.78;2.78;;;33.80;57.90;;;;;;7385359;19;20141;-78
2023/07/09 11:35:05;;;;;;;4.90;3.00;;;34.00;57.10;;;;;;7386133;19;20163;-80
2023/07/09 11:37:31;;;;;;;5.85;2.70;;;33.90;57.70;;;;;;7383483;19;20135;-78
2023/07/09 11:40:11;;;;;;;7.78;3.00;;;33.70;60.70;;;;;;7388079;19;20149;-78
2023/07/09 11:42:49;;;;;;;4.78;3.35;;;33.60;61.40;;;;;;7381822;19;20138;-78
2023/07/09 11:45:38;;;;;;;3.80;2.78;;;33.90;60.20;;;;;;7386408;19;20169;-79
2023/07/09 11:48:23;;;;;;;5.30;2.55;;;34.00;61.00;;;;;;7387053;19;20142;-78
2023/07/09 11:50:52;;;;;;;3.72;2.58;;;34.00;59.90;;;;;;7385328;19;20205;-78
2023/07/09 11:53:47;;;;;;;5.70;3.17;;;34.10;58.30;;;;;;7382686;19;20138;-81
2023/07/09 11:56:19;;;;;;;4.93;3.40;;;34.20;58.40;;;;;;7383902;19;20135;-78
2023/07/09 11:58:51;;;;;;;10.07;8.07;;;34.30;59.00;;;;;;7383901;19;20146;-77
2023/07/09 12:01:20;;;;;;;6.40;3.22;;;34.10;59.80;;;;;;7386006;19;20162;-79
2023/07/09 12:03:48;;;;;;;6.32;3.35;;;34.10;60.00;;;;;;7385235;19;20186;-80
2023/07/09 12:06:22;;;;;;;6.40;3.75;;;34.10;60.10;;;;;;7384636;19;20651;-78
2023/07/09 12:08:50;;;;;;;5.15;3.35;;;34.10;58.70;;;;;;7385318;19;20134;-81
2023/07/09 12:11:31;;;;;;;6.30;3.83;;;34.20;58.40;;;;;;7384653;19;20611;-79
2023/07/09 12:14:11;;;;;;;4.82;3.80;;;34.40;57.90;;;;;;7384569;19;20157;-80
2023/07/09 12:16:45;;;;;;;5.50;2.55;;;34.40;58.70;;;;;;7379937;19;20219;-79
2023/07/09 12:19:12;;;;;;;5.55;4.05;;;34.40;58.60;;;;;;7383638;19;20150;-76
2023/07/09 12:21:42;;;;;;;5.68;3.20;;;34.60;58.60;;;;;;7383622;19;20690;-80
2023/07/09 12:24:22;;;;;;;6.47;3.60;;;34.70;58.00;;;;;;7383432;19;20183;-78
2023/07/09 12:26:51;;;;;;;7.22;3.10;;;34.70;57.70;;;;;;7384369;19;20158;-79
2023/07/09 12:29:17;;;;;;;7.60;2.85;;;34.90;56.00;;;;;;7384077;19;20168;-79
2023/07/09 12:31:43;;;;;;;5.32;2.90;;;34.90;55.20;;;;;;7384830;19;20150;-80
2023/07/09 12:34:16;;;;;;;4.80;3.17;;;35.00;54.40;;;;;;7385250;19;20129;-79
2023/07/09 12:36:49;;;;;;;5.40;2.65;;;35.00;54.20;;;;;;7377383;19;20503;-79
2023/07/09 12:39:20;;;;;;;6.30;3.30;;;35.10;54.10;;;;;;7375545;19;20475;-79
2023/07/09 12:41:46;;;;;;;5.28;2.67;;;35.30;53.80;;;;;;7381376;19;20168;-80
2023/07/09 12:44:21;;;;;;;4.80;2.83;;;35.30;53.20;;;;;;7378516;19;20139;-78
2023/07/09 12:46:50;;;;;;;4.93;2.90;;;35.30;52.70;;;;;;7377679;19;20158;-79
2023/07/09 12:49:36;;;;;;;4.93;2.90;;;35.40;52.90;;;;;;7381686;19;20179;-79
2023/07/09 12:52:09;;;;;;;4.05;2.70;;;35.40;52.80;;;;;;7383000;19;20153;-77
2023/07/09 12:54:34;;;;;;;5.40;3.20;;;35.30;53.30;;;;;;7387636;19;20152;-79
2023/07/09 12:57:04;;;;;;;5.28;3.10;;;35.10;53.20;;;;;;7388486;19;20508;-80
2023/07/09 12:59:40;;;;;;;6.78;2.30;;;34.90;52.80;;;;;;7391763;19;20334;-77
2023/07/09 13:02:24;;;;;;;6.10;2.88;;;34.90;53.00;;;;;;7390975;19;20624;-78
2023/07/09 13:04:58;;;;;;;5.22;3.20;;;34.80;53.00;;;;;;7391813;19;20153;-79